createdAt,value
2019-03-18T00:01:02.903Z,97465.08
2019-03-18T00:02:07.597Z,97465.34
2019-03-18T00:03:10.269Z,97471.50
2019-03-18T00:04:12.987Z,97475.28
2019-03-18T00:05:15.648Z,97463.50
2019-03-18T00:06:19.380Z,97458.62
2019-03-18T00:07:22.339Z,97466.63
2019-03-18T00:08:24.985Z,97460.77
2019-03-18T00:09:27.665Z,97467.00
2019-03-18T00:10:30.699Z,97462.42
2019-03-18T00:11:33.453Z,97457.03
2019-03-18T00:12:36.476Z,97457.03
2019-03-18T00:13:39.427Z,97465.11
2019-03-18T00:14:42.153Z,97462.66
2019-03-18T00:15:44.805Z,97462.66
2019-03-18T00:16:47.542Z,97468.81
2019-03-18T00:17:50.205Z,97461.40
2019-03-18T00:18:55.996Z,97461.40
2019-03-18T00:20:02.609Z,97473.13
2019-03-18T00:21:06.904Z,97473.13
2019-03-18T00:22:09.722Z,97472.08
2019-03-18T00:23:13.765Z,97466.42
2019-03-18T00:24:16.420Z,97467.47
2019-03-18T00:25:19.103Z,97468.79
2019-03-18T00:26:23.427Z,97465.05
2019-03-18T00:27:31.220Z,97465.05
2019-03-18T00:28:33.959Z,97471.95
2019-03-18T00:29:36.625Z,97470.87
2019-03-18T00:30:39.323Z,97473.29
2019-03-18T00:31:42.291Z,97471.37
2019-03-18T00:32:45.462Z,97468.95
2019-03-18T00:33:48.162Z,97472.72
2019-03-18T00:34:51.249Z,97472.72
2019-03-18T00:35:56.835Z,97480.94
2019-03-18T00:37:00.425Z,97480.94
2019-03-18T00:38:03.461Z,97470.23
2019-03-18T00:39:06.122Z,97468.05
2019-03-18T00:40:08.766Z,97468.05
2019-03-18T00:41:11.497Z,97467.19
2019-03-18T00:42:17.278Z,97456.63
2019-03-18T00:43:22.672Z,97467.59
2019-03-18T00:44:25.986Z,97459.84
2019-03-18T00:45:30.788Z,97457.45
2019-03-18T00:46:33.569Z,97457.45
2019-03-18T00:47:37.862Z,97462.23
2019-03-18T00:48:40.543Z,97465.17
2019-03-18T00:49:43.267Z,97465.17
2019-03-18T00:50:46.207Z,97465.70
2019-03-18T00:51:48.979Z,97470.02
2019-03-18T00:52:51.650Z,97464.66
2019-03-18T00:53:54.414Z,97463.55
2019-03-18T00:54:57.074Z,97463.55
2019-03-18T00:55:59.828Z,97466.69
2019-03-18T00:57:02.771Z,97467.48
2019-03-18T00:58:05.751Z,97467.48
2019-03-18T00:59:08.421Z,97478.80
2019-03-18T01:00:11.083Z,97478.80
2019-03-18T01:01:13.813Z,97478.45
2019-03-18T01:02:16.457Z,97478.45
2019-03-18T01:03:19.435Z,97472.64
2019-03-18T01:04:22.121Z,97472.64
2019-03-18T01:05:25.326Z,97477.05
2019-03-18T01:06:27.991Z,97472.98
2019-03-18T01:07:30.748Z,97469.31
2019-03-18T01:08:33.429Z,97471.30
2019-03-18T01:09:36.448Z,97472.29
2019-03-18T01:10:39.564Z,97470.22
2019-03-18T01:11:42.405Z,97467.42
2019-03-18T01:12:45.077Z,97471.16
2019-03-18T01:13:48.249Z,97471.53
2019-03-18T01:14:50.922Z,97472.52
2019-03-18T01:15:53.885Z,97461.23
2019-03-18T01:16:56.663Z,97462.41
2019-03-18T01:17:59.858Z,97462.67
2019-03-18T01:19:02.526Z,97461.20
2019-03-18T01:20:05.189Z,97462.52
2019-03-18T01:21:07.860Z,97459.89
2019-03-18T01:22:10.668Z,97456.52
2019-03-18T01:23:13.470Z,97463.69
2019-03-18T01:24:16.122Z,97445.98
2019-03-18T01:25:19.207Z,97458.31
2019-03-18T01:26:21.930Z,97451.41
2019-03-18T01:27:25.518Z,97451.41
2019-03-18T01:28:28.336Z,97453.53
2019-03-18T01:29:31.057Z,97451.22
2019-03-18T01:30:33.735Z,97451.91
2019-03-18T01:31:39.042Z,97464.34
2019-03-18T01:32:41.714Z,97463.17
2019-03-18T01:33:47.815Z,97463.70
2019-03-18T01:34:50.469Z,97458.85
2019-03-18T01:35:53.585Z,97458.85
2019-03-18T01:36:56.274Z,97449.42
2019-03-18T01:37:59.308Z,97457.15
2019-03-18T01:39:02.081Z,97455.25
2019-03-18T01:40:06.324Z,97460.69
2019-03-18T01:41:09.373Z,97465.23
2019-03-18T01:42:12.014Z,97463.63
2019-03-18T01:43:14.687Z,97463.63
2019-03-18T01:44:17.409Z,97465.80
2019-03-18T01:45:20.202Z,97464.78
2019-03-18T01:46:23.255Z,97462.35
2019-03-18T01:47:25.920Z,97458.42
2019-03-18T01:48:28.644Z,97461.83
2019-03-18T01:49:31.299Z,97461.83
2019-03-18T01:50:34.108Z,97467.46
2019-03-18T01:51:36.743Z,97465.50
2019-03-18T01:52:39.681Z,97461.83
2019-03-18T01:53:43.141Z,97463.66
2019-03-18T01:54:45.813Z,97458.09
2019-03-18T01:55:48.991Z,97461.20
2019-03-18T01:56:51.782Z,97461.20
2019-03-18T01:57:54.715Z,97471.23
2019-03-18T01:58:57.788Z,97471.23
2019-03-18T02:00:00.667Z,97465.30
2019-03-18T02:01:03.528Z,97471.98
2019-03-18T02:02:06.303Z,97471.98
2019-03-18T02:03:11.657Z,97473.88
2019-03-18T02:04:14.384Z,97469.00
2019-03-18T02:05:17.077Z,97473.29
2019-03-18T02:06:19.896Z,97473.29
2019-03-18T02:07:23.293Z,97474.08
2019-03-18T02:08:26.087Z,97475.42
2019-03-18T02:09:29.302Z,97478.86
2019-03-18T02:10:32.045Z,97486.66
2019-03-18T02:11:35.211Z,97486.66
2019-03-18T02:12:40.406Z,97484.55
2019-03-18T02:13:42.926Z,97486.98
2019-03-18T02:14:45.798Z,97486.98
2019-03-18T02:15:53.715Z,97489.37
2019-03-18T02:16:55.898Z,97478.01
2019-03-18T02:17:58.840Z,97488.81
2019-03-18T02:19:01.541Z,97496.91
2019-03-18T02:20:04.301Z,97496.02
2019-03-18T02:21:06.978Z,97497.33
2019-03-18T02:22:09.611Z,97490.16
2019-03-18T02:23:12.356Z,97500.90
2019-03-18T02:24:15.375Z,97494.19
2019-03-18T02:25:18.123Z,97493.95
2019-03-18T02:26:21.194Z,97488.84
2019-03-18T02:27:23.863Z,97488.84
2019-03-18T02:28:26.598Z,97489.66
2019-03-18T02:29:29.270Z,97482.89
2019-03-18T02:30:34.473Z,97482.89
2019-03-18T02:31:37.203Z,97489.83
2019-03-18T02:32:39.888Z,97490.65
2019-03-18T02:33:43.144Z,97497.13
2019-03-18T02:34:45.891Z,97484.52
2019-03-18T02:35:48.628Z,97484.52
2019-03-18T02:36:52.041Z,97496.05
2019-03-18T02:37:54.689Z,97490.39
2019-03-18T02:38:57.700Z,97491.37
2019-03-18T02:40:00.642Z,97494.91
2019-03-18T02:41:05.377Z,97494.91
2019-03-18T02:42:08.154Z,97481.48
2019-03-18T02:43:11.299Z,97494.88
2019-03-18T02:44:13.991Z,97493.30
2019-03-18T02:45:16.756Z,97491.08
2019-03-18T02:46:19.449Z,97483.91
2019-03-18T02:47:22.242Z,97487.30
2019-03-18T02:48:26.909Z,97487.30
2019-03-18T02:49:29.868Z,97497.23
2019-03-18T02:50:32.547Z,97497.23
2019-03-18T02:51:35.240Z,97491.27
2019-03-18T02:52:41.008Z,97496.45
2019-03-18T02:53:43.719Z,97493.53
2019-03-18T02:54:46.882Z,97493.53
2019-03-18T02:55:49.963Z,97493.69
2019-03-18T02:56:52.694Z,97496.45
2019-03-18T02:57:55.356Z,97497.27
2019-03-18T02:58:57.987Z,97502.05
2019-03-18T03:00:00.658Z,97498.87
2019-03-18T03:01:03.466Z,97498.87
2019-03-18T03:02:06.495Z,97495.92
2019-03-18T03:03:09.232Z,97497.45
2019-03-18T03:04:11.917Z,97497.45
2019-03-18T03:05:14.717Z,97500.77
2019-03-18T03:06:19.701Z,97505.09
2019-03-18T03:07:22.434Z,97505.09
2019-03-18T03:08:25.466Z,97505.28
2019-03-18T03:09:29.103Z,97500.77
2019-03-18T03:10:31.936Z,97502.60
2019-03-18T03:11:34.856Z,97503.91
2019-03-18T03:12:37.567Z,97503.91
2019-03-18T03:13:42.765Z,97504.17
2019-03-18T03:14:45.936Z,97500.97
2019-03-18T03:15:48.722Z,97500.83
2019-03-18T03:16:51.534Z,97497.69
2019-03-18T03:17:54.309Z,97489.14
2019-03-18T03:18:57.536Z,97489.14
2019-03-18T03:20:03.376Z,97501.45
2019-03-18T03:21:08.559Z,97501.45
2019-03-18T03:22:11.322Z,97503.25
2019-03-18T03:23:14.083Z,97503.25
2019-03-18T03:24:16.846Z,97499.78
2019-03-18T03:25:20.001Z,97496.50
2019-03-18T03:26:22.742Z,97508.43
2019-03-18T03:27:25.767Z,97501.48
2019-03-18T03:28:28.448Z,97507.35
2019-03-18T03:29:31.165Z,97496.23
2019-03-18T03:30:33.998Z,97499.71
2019-03-18T03:31:36.662Z,97502.77
2019-03-18T03:32:39.513Z,97504.34
2019-03-18T03:33:45.357Z,97500.53
2019-03-18T03:34:48.107Z,97503.78
2019-03-18T03:35:51.287Z,97507.02
2019-03-18T03:36:54.036Z,97507.02
2019-03-18T03:37:57.206Z,97500.86
2019-03-18T03:39:00.320Z,97504.59
2019-03-18T03:40:03.322Z,97501.09
2019-03-18T03:41:06.179Z,97508.81
2019-03-18T03:42:08.952Z,97508.52
2019-03-18T03:43:11.646Z,97511.58
2019-03-18T03:44:14.738Z,97511.58
2019-03-18T03:45:17.489Z,97515.34
2019-03-18T03:46:21.408Z,97507.58
2019-03-18T03:47:24.089Z,97507.58
2019-03-18T03:48:27.144Z,97505.98
2019-03-18T03:49:29.901Z,97519.44
2019-03-18T03:50:32.702Z,97509.48
2019-03-18T03:51:35.493Z,97503.33
2019-03-18T03:52:38.553Z,97503.33
2019-03-18T03:53:41.315Z,97518.00
2019-03-18T03:54:44.045Z,97508.06
2019-03-18T03:55:46.781Z,97506.47
2019-03-18T03:56:49.502Z,97506.47
2019-03-18T03:57:52.227Z,97512.92
2019-03-18T03:58:55.635Z,97511.51
2019-03-18T03:59:58.699Z,97518.16
2019-03-18T04:01:01.424Z,97512.16
2019-03-18T04:02:04.261Z,97513.77
2019-03-18T04:03:06.917Z,97513.77
2019-03-18T04:04:09.647Z,97521.60
2019-03-18T04:05:12.706Z,97521.60
2019-03-18T04:06:15.566Z,97503.25
2019-03-18T04:07:18.388Z,97517.14
2019-03-18T04:08:22.165Z,97537.06
2019-03-18T04:09:24.870Z,97509.67
2019-03-18T04:10:27.709Z,97518.48
2019-03-18T04:11:30.716Z,97520.09
2019-03-18T04:12:33.786Z,97518.81
2019-03-18T04:13:36.505Z,97526.80
2019-03-18T04:14:39.189Z,97526.80
2019-03-18T04:15:42.600Z,97518.81
2019-03-18T04:17:00.565Z,97531.39
2019-03-18T04:17:51.814Z,97514.48
2019-03-18T04:18:54.553Z,97533.59
2019-03-18T04:20:00.532Z,97534.38
2019-03-18T04:21:02.701Z,97527.43
2019-03-18T04:22:05.969Z,97534.44
2019-03-18T04:23:10.639Z,97535.45
2019-03-18T04:24:13.617Z,97523.41
2019-03-18T04:25:16.438Z,97523.41
2019-03-18T04:26:19.143Z,97535.27
2019-03-18T04:27:24.812Z,97517.08
2019-03-18T04:28:26.676Z,97544.41
2019-03-18T04:29:29.463Z,97535.03
2019-03-18T04:30:32.136Z,97536.08
2019-03-18T04:31:34.856Z,97542.23
2019-03-18T04:32:37.644Z,97543.84
2019-03-18T04:33:40.374Z,97543.84
2019-03-18T04:34:44.105Z,97539.55
2019-03-18T04:35:46.812Z,97544.11
2019-03-18T04:36:49.525Z,97546.23
2019-03-18T04:37:52.292Z,97544.70
2019-03-18T04:38:55.301Z,97552.13
2019-03-18T04:39:58.092Z,97552.13
2019-03-18T04:41:01.544Z,97556.72
2019-03-18T04:42:04.225Z,97550.14
2019-03-18T04:43:06.900Z,97530.67
2019-03-18T04:44:09.576Z,97545.42
2019-03-18T04:45:15.373Z,97545.42
2019-03-18T04:46:18.023Z,97537.03
2019-03-18T04:47:21.955Z,97542.41
2019-03-18T04:48:24.623Z,97543.78
2019-03-18T04:49:27.943Z,97543.78
2019-03-18T04:50:30.808Z,97551.05
2019-03-18T04:51:33.529Z,97541.75
2019-03-18T04:52:36.178Z,97541.75
2019-03-18T04:53:39.138Z,97564.26
2019-03-18T04:54:41.890Z,97558.85
2019-03-18T04:55:44.549Z,97555.09
2019-03-18T04:56:47.330Z,97557.25
2019-03-18T04:57:50.050Z,97548.70
2019-03-18T04:58:52.807Z,97555.41
2019-03-18T04:59:55.741Z,97571.30
2019-03-18T05:00:58.719Z,97585.11
2019-03-18T05:02:04.922Z,97576.59
2019-03-18T05:03:07.970Z,97576.59
2019-03-18T05:04:11.077Z,97577.95
2019-03-18T05:05:14.204Z,97571.04
2019-03-18T05:06:17.257Z,97583.44
2019-03-18T05:07:19.958Z,97579.13
2019-03-18T05:08:23.131Z,97577.46
2019-03-18T05:09:25.814Z,97582.54
2019-03-18T05:10:28.492Z,97582.54
2019-03-18T05:11:31.154Z,97588.86
2019-03-18T05:12:36.345Z,97593.70
2019-03-18T05:13:39.108Z,97590.97
2019-03-18T05:14:41.816Z,97585.66
2019-03-18T05:15:44.458Z,97587.84
2019-03-18T05:16:47.163Z,97591.81
2019-03-18T05:17:52.358Z,97591.29
2019-03-18T05:18:56.628Z,97591.29
2019-03-18T05:20:00.406Z,97588.39
2019-03-18T05:21:03.150Z,97591.34
2019-03-18T05:22:08.917Z,97589.23
2019-03-18T05:23:11.687Z,97584.70
2019-03-18T05:24:14.837Z,97587.66
2019-03-18T05:25:17.797Z,97587.66
2019-03-18T05:26:22.327Z,97591.31
2019-03-18T05:27:25.630Z,97593.20
2019-03-18T05:28:29.766Z,97597.20
2019-03-18T05:29:32.488Z,97594.79
2019-03-18T05:30:35.545Z,97597.18
2019-03-18T05:31:38.554Z,97597.77
2019-03-18T05:32:41.233Z,97597.47
2019-03-18T05:33:43.995Z,97601.79
2019-03-18T05:34:47.148Z,97590.26
2019-03-18T05:35:49.884Z,97603.66
2019-03-18T05:36:52.628Z,97604.76
2019-03-18T05:37:55.999Z,97604.76
2019-03-18T05:39:02.878Z,97602.41
2019-03-18T05:40:07.869Z,97606.75
2019-03-18T05:41:10.603Z,97605.95
2019-03-18T05:42:13.510Z,97616.20
2019-03-18T05:43:16.189Z,97609.20
2019-03-18T05:44:19.204Z,97609.97
2019-03-18T05:45:21.949Z,97609.97
2019-03-18T05:46:24.977Z,97609.80
2019-03-18T05:47:38.592Z,97621.61
2019-03-18T05:48:33.178Z,97622.42
2019-03-18T05:49:37.015Z,97618.34
2019-03-18T05:50:40.108Z,97618.34
2019-03-18T05:51:45.213Z,97629.06
2019-03-18T05:52:50.645Z,97616.29
2019-03-18T05:53:53.439Z,97624.27
2019-03-18T05:54:58.898Z,97626.16
2019-03-18T05:56:01.934Z,97626.16
2019-03-18T05:57:04.654Z,97641.38
2019-03-18T05:58:07.712Z,97646.20
2019-03-18T05:59:10.427Z,97643.48
2019-03-18T06:00:13.305Z,97643.48
2019-03-18T06:01:16.026Z,97652.33
2019-03-18T06:02:19.007Z,97642.72
2019-03-18T06:03:21.735Z,97650.52
2019-03-18T06:04:25.051Z,97648.91
2019-03-18T06:05:27.969Z,97648.91
2019-03-18T06:06:30.632Z,97659.08
2019-03-18T06:07:33.405Z,97657.97
2019-03-18T06:08:36.813Z,97658.26
2019-03-18T06:09:39.519Z,97663.36
2019-03-18T06:10:42.286Z,97667.94
2019-03-18T06:11:44.966Z,97675.20
2019-03-18T06:12:49.041Z,97675.20
2019-03-18T06:13:57.801Z,97678.13
2019-03-18T06:15:03.321Z,97682.42
2019-03-18T06:16:08.060Z,97682.69
2019-03-18T06:17:10.925Z,97687.02
2019-03-18T06:18:14.070Z,97683.48
2019-03-18T06:19:16.921Z,97677.13
2019-03-18T06:20:19.891Z,97687.03
2019-03-18T06:21:22.697Z,97691.58
2019-03-18T06:22:28.423Z,97695.58
2019-03-18T06:23:31.243Z,97699.09
2019-03-18T06:24:36.509Z,97690.23
2019-03-18T06:25:39.263Z,97700.39
2019-03-18T06:26:43.882Z,97697.17
2019-03-18T06:27:46.607Z,97706.84
2019-03-18T06:28:49.329Z,97706.84
2019-03-18T06:29:52.535Z,97707.41
2019-03-18T06:43:51.522Z,97738.67
2019-03-18T06:44:54.480Z,97746.72
2019-03-18T06:45:57.859Z,97752.41
2019-03-18T06:47:00.688Z,97755.05
2019-03-18T06:48:05.446Z,97756.12
2019-03-18T06:49:08.855Z,97756.12
2019-03-18T06:50:12.299Z,97755.89
2019-03-18T06:51:15.715Z,97758.01
2019-03-18T06:52:18.441Z,97750.53
2019-03-18T06:53:21.112Z,97766.94
2019-03-18T06:54:26.987Z,97766.13
2019-03-18T06:55:29.941Z,97766.64
2019-03-18T06:56:32.630Z,97767.13
2019-03-18T06:57:35.823Z,97767.13
2019-03-18T06:58:38.939Z,97760.36
2019-03-18T06:59:44.284Z,97760.36
2019-03-18T07:00:46.941Z,97761.97
2019-03-18T07:01:50.574Z,97761.16
2019-03-18T07:02:53.296Z,97763.05
2019-03-18T07:03:56.371Z,97762.80
2019-03-18T07:05:16.792Z,97768.45
2019-03-18T07:06:19.470Z,97766.80
2019-03-18T07:07:22.334Z,97760.87
2019-03-18T07:08:25.623Z,97769.16
2019-03-18T07:09:28.796Z,97774.02
2019-03-18T07:10:31.484Z,97773.20
2019-03-18T07:11:34.181Z,97771.81
2019-03-18T07:12:37.026Z,97771.81
2019-03-18T07:13:40.283Z,97774.80
2019-03-18T07:14:43.527Z,97774.83
2019-03-18T07:15:46.369Z,97783.67
2019-03-18T07:16:49.177Z,97782.61
2019-03-18T07:17:52.082Z,97791.45
2019-03-18T07:18:54.957Z,97785.78
2019-03-18T07:19:57.800Z,97787.46
2019-03-18T07:21:01.331Z,97787.46
2019-03-18T07:22:04.182Z,97785.90
2019-03-18T07:23:07.049Z,97789.41
2019-03-18T07:24:09.923Z,97792.07
2019-03-18T07:25:14.746Z,97794.92
2019-03-18T07:26:18.096Z,97792.45
2019-03-18T07:27:21.317Z,97792.45
2019-03-18T07:28:24.216Z,97793.80
2019-03-18T07:29:27.072Z,97793.80
2019-03-18T07:30:29.941Z,97793.84
2019-03-18T07:31:32.749Z,97792.23
2019-03-18T07:32:35.615Z,97792.23
2019-03-18T07:33:38.859Z,97800.73
2019-03-18T07:34:42.018Z,97788.13
2019-03-18T07:35:44.933Z,97798.08
2019-03-18T07:36:48.218Z,97802.41
2019-03-18T07:37:51.593Z,97800.77
2019-03-18T07:38:54.628Z,97796.00
2019-03-18T07:40:00.652Z,97805.13
2019-03-18T07:41:03.533Z,97808.31
2019-03-18T07:42:09.483Z,97808.31
2019-03-18T07:43:12.371Z,97808.82
2019-03-18T07:44:15.261Z,97812.84
2019-03-18T07:45:18.162Z,97813.95
2019-03-18T07:46:21.329Z,97813.95
2019-03-18T07:47:24.568Z,97818.75
2019-03-18T07:48:31.317Z,97823.06
2019-03-18T07:49:35.039Z,97815.02
2019-03-18T07:50:40.539Z,97831.37
2019-03-18T07:51:43.924Z,97824.39
2019-03-18T07:52:47.215Z,97824.66
2019-03-18T07:53:50.515Z,97824.66
2019-03-18T07:54:53.436Z,97817.12
2019-03-18T07:55:56.291Z,97832.95
2019-03-18T07:56:59.121Z,97831.83
2019-03-18T07:58:02.015Z,97831.02
2019-03-18T07:59:08.789Z,97831.02
2019-03-18T08:00:11.369Z,97826.70
2019-03-18T08:01:14.405Z,97827.27
2019-03-18T08:02:17.277Z,97827.27
2019-03-18T08:03:20.182Z,97827.81
2019-03-18T08:04:23.034Z,97827.20
2019-03-18T08:05:26.166Z,97827.20
2019-03-18T08:06:30.144Z,97835.76
2019-03-18T08:07:36.242Z,97834.91
2019-03-18T08:08:40.526Z,97836.76
2019-03-18T08:09:43.518Z,97841.82
2019-03-18T08:10:46.434Z,97838.58
2019-03-18T08:11:50.716Z,97837.73
2019-03-18T08:12:53.751Z,97835.13
2019-03-18T08:13:56.638Z,97838.55
2019-03-18T08:15:02.520Z,97838.30
2019-03-18T08:16:06.991Z,97838.85
2019-03-18T08:17:10.553Z,97842.56
2019-03-18T08:18:13.541Z,97855.47
2019-03-18T08:19:16.521Z,97849.23
2019-03-18T08:20:19.382Z,97849.23
2019-03-18T08:21:23.489Z,97851.52
2019-03-18T08:22:26.303Z,97850.89
2019-03-18T08:23:29.606Z,97850.89
2019-03-18T08:24:33.222Z,97848.11
2019-03-18T08:25:38.986Z,97849.19
2019-03-18T08:26:41.969Z,97844.10
2019-03-18T08:27:46.377Z,97844.10
2019-03-18T08:28:49.192Z,97849.94
2019-03-18T08:29:54.544Z,97841.61
2019-03-18T08:30:59.956Z,97840.52
2019-03-18T08:32:03.609Z,97840.52
2019-03-18T08:33:06.543Z,97847.94
2019-03-18T08:34:09.478Z,97854.89
2019-03-18T08:35:12.307Z,97859.70
2019-03-18T08:36:15.286Z,97852.79
2019-03-18T08:37:18.386Z,97852.79
2019-03-18T08:38:21.344Z,97869.55
2019-03-18T08:39:24.791Z,97869.28
2019-03-18T08:40:27.767Z,97866.55
2019-03-18T08:41:30.737Z,97871.73
2019-03-18T08:42:37.467Z,97871.73
2019-03-18T08:43:40.790Z,97882.82
2019-03-18T08:44:43.712Z,97879.89
2019-03-18T08:45:46.674Z,97879.89
2019-03-18T08:46:49.614Z,97885.80
2019-03-18T08:47:52.910Z,97886.32
2019-03-18T08:48:56.235Z,97877.78
2019-03-18T08:49:59.251Z,97884.23
2019-03-18T08:51:02.145Z,97879.12
2019-03-18T08:52:05.071Z,97883.17
2019-03-18T08:53:07.924Z,97889.36
2019-03-18T08:54:15.177Z,97883.20
2019-03-18T08:55:17.771Z,97892.31
2019-03-18T08:56:20.566Z,97891.72
2019-03-18T08:57:23.471Z,97886.90
2019-03-18T08:58:26.287Z,97894.39
2019-03-18T08:59:30.215Z,97893.33
2019-03-18T09:00:33.344Z,97897.08
2019-03-18T09:01:36.173Z,97899.46
2019-03-18T09:02:39.109Z,97899.22
2019-03-18T09:03:41.987Z,97899.22
2019-03-18T09:04:45.085Z,97902.66
2019-03-18T09:05:47.982Z,97893.28
2019-03-18T09:06:51.150Z,97899.00
2019-03-18T09:07:55.347Z,97908.00
2019-03-18T09:08:58.614Z,97901.91
2019-03-18T09:10:03.356Z,97910.73
2019-03-18T09:11:06.247Z,97910.73
2019-03-18T09:12:09.443Z,97912.64
2019-03-18T09:13:12.284Z,97909.86
2019-03-18T09:14:15.159Z,97909.86
2019-03-18T09:15:22.696Z,97915.22
2019-03-18T09:16:27.467Z,97911.38
2019-03-18T09:17:30.459Z,97909.50
2019-03-18T09:18:36.804Z,97911.09
2019-03-18T09:19:42.862Z,97912.72
2019-03-18T09:20:46.382Z,97913.25
2019-03-18T09:21:49.330Z,97913.25
2019-03-18T09:22:52.276Z,97915.05
2019-03-18T09:23:55.093Z,97921.20
2019-03-18T09:24:58.366Z,97922.20
2019-03-18T09:26:03.503Z,97925.34
2019-03-18T09:27:10.697Z,97928.23
2019-03-18T09:28:13.555Z,97936.56
2019-03-18T09:29:16.376Z,97931.19
2019-03-18T09:30:19.477Z,97931.19
2019-03-18T09:31:24.131Z,97933.90
2019-03-18T09:32:27.038Z,97934.93
2019-03-18T09:33:31.781Z,97934.93
2019-03-18T09:34:34.663Z,97935.72
2019-03-18T09:35:39.126Z,97929.25
2019-03-18T09:36:41.955Z,97929.25
2019-03-18T09:37:46.659Z,97943.13
2019-03-18T09:38:51.125Z,97942.20
2019-03-18T09:39:54.308Z,97931.05
2019-03-18T09:40:57.617Z,97940.48
2019-03-18T09:42:00.469Z,97940.48
2019-03-18T09:43:05.836Z,97945.67
2019-03-18T09:44:13.134Z,97931.19
2019-03-18T09:45:17.306Z,97931.19
2019-03-18T09:46:20.307Z,97931.84
2019-03-18T09:47:24.707Z,97934.87
2019-03-18T09:48:27.737Z,97937.91
2019-03-18T09:49:34.308Z,97926.13
2019-03-18T09:50:37.738Z,97928.22
2019-03-18T09:51:40.595Z,97929.41
2019-03-18T09:52:43.419Z,97936.69
2019-03-18T09:53:46.292Z,97937.64
2019-03-18T09:54:49.176Z,97934.81
2019-03-18T09:55:52.564Z,97925.25
2019-03-18T09:56:55.912Z,97925.25
2019-03-18T09:57:58.838Z,97930.89
2019-03-18T09:59:02.080Z,97936.59
2019-03-18T10:00:05.292Z,97934.75
2019-03-18T10:01:12.096Z,97935.18
2019-03-18T10:02:15.480Z,97941.70
2019-03-18T10:03:18.298Z,97935.96
2019-03-18T10:04:23.871Z,97939.23
2019-03-18T10:05:26.724Z,97940.08
2019-03-18T10:06:29.563Z,97945.60
2019-03-18T10:07:32.919Z,97945.60
2019-03-18T10:08:36.161Z,97945.02
2019-03-18T10:09:41.204Z,97951.53
2019-03-18T10:10:45.394Z,97951.28
2019-03-18T10:11:48.304Z,97957.48
2019-03-18T10:12:53.886Z,97947.62
2019-03-18T10:13:56.712Z,97939.75
2019-03-18T10:15:00.492Z,97943.55
2019-03-18T10:16:06.774Z,97956.45
2019-03-18T10:17:10.249Z,97953.31
2019-03-18T10:18:15.782Z,97950.97
2019-03-18T10:19:18.626Z,97964.55
2019-03-18T10:20:21.453Z,97964.55
2019-03-18T10:21:24.797Z,97959.06
2019-03-18T10:22:27.633Z,97955.80
2019-03-18T10:23:30.605Z,97954.41
2019-03-18T10:24:33.532Z,97970.11
2019-03-18T10:25:37.027Z,97952.30
2019-03-18T10:26:39.773Z,97966.59
2019-03-18T10:27:46.249Z,97965.05
2019-03-18T10:28:49.961Z,97960.09
2019-03-18T10:29:52.703Z,97954.56
2019-03-18T10:30:57.981Z,97969.98
2019-03-18T10:32:01.326Z,97963.42
2019-03-18T10:33:06.943Z,97963.98
2019-03-18T10:34:13.006Z,97963.98
2019-03-18T10:35:15.954Z,97975.52
2019-03-18T10:36:18.894Z,97963.46
2019-03-18T10:37:21.690Z,97979.41
2019-03-18T10:38:24.519Z,97971.02
2019-03-18T10:39:27.410Z,97978.22
2019-03-18T10:40:31.198Z,97965.45
2019-03-18T10:41:34.024Z,97979.45
2019-03-18T10:42:36.720Z,97988.77
2019-03-18T10:43:44.895Z,97985.71
2019-03-18T10:44:47.799Z,97988.33
2019-03-18T10:45:50.691Z,97985.52
2019-03-18T10:46:53.546Z,97988.81
2019-03-18T10:47:56.941Z,98000.35
2019-03-18T10:49:00.221Z,97997.36
2019-03-18T10:50:03.103Z,98003.08
2019-03-18T10:51:05.974Z,98005.71
2019-03-18T10:52:08.864Z,98004.63
2019-03-18T10:53:12.260Z,98012.48
2019-03-18T10:54:15.407Z,98012.48
2019-03-18T10:55:18.292Z,98016.60
2019-03-18T10:56:22.221Z,98017.72
2019-03-18T10:57:25.104Z,98017.72
2019-03-18T10:58:28.012Z,98017.92
2019-03-18T10:59:31.654Z,98022.52
2019-03-18T11:00:38.751Z,98022.52
2019-03-18T11:01:41.566Z,98028.02
2019-03-18T11:02:45.205Z,98038.27
2019-03-18T11:03:48.378Z,98035.36
2019-03-18T11:04:51.111Z,98035.36
2019-03-18T11:05:55.178Z,98034.33
2019-03-18T11:06:58.542Z,98036.15
2019-03-18T11:08:03.438Z,98039.90
2019-03-18T11:09:06.206Z,98039.90
2019-03-18T11:10:08.941Z,98036.53
2019-03-18T11:11:14.090Z,98026.98
2019-03-18T11:12:19.536Z,98026.98
2019-03-18T11:13:25.304Z,98028.05
2019-03-18T11:14:28.091Z,98028.05
2019-03-18T11:15:32.582Z,98030.20
2019-03-18T11:16:41.270Z,98018.50
2019-03-18T11:17:47.182Z,98018.50
2019-03-18T11:18:50.268Z,98014.84
2019-03-18T11:19:58.709Z,98022.33
2019-03-18T11:21:00.719Z,98013.02
2019-03-18T11:22:03.590Z,98015.45
2019-03-18T11:23:06.632Z,98010.98
2019-03-18T11:24:16.264Z,98011.77
2019-03-18T11:25:19.361Z,98011.77
2019-03-18T11:26:22.167Z,98014.34
2019-03-18T11:27:25.279Z,98019.82
2019-03-18T11:28:32.239Z,97999.36
2019-03-18T11:29:32.621Z,98013.31
2019-03-18T11:42:52.146Z,98000.66
2019-03-18T11:44:01.954Z,97999.71
2019-03-18T11:45:08.134Z,98016.26
2019-03-18T11:46:13.977Z,98022.52
2019-03-18T11:47:21.533Z,98019.61
2019-03-18T11:48:25.037Z,98011.92
2019-03-18T11:49:39.192Z,98022.70
2019-03-18T11:50:35.310Z,98022.70
2019-03-18T11:51:39.170Z,98005.38
2019-03-18T11:52:43.002Z,98012.90
2019-03-18T11:53:46.029Z,98003.50
2019-03-18T11:54:49.054Z,98003.50
2019-03-18T11:55:52.073Z,98008.55
2019-03-18T11:56:54.751Z,98000.52
2019-03-18T11:57:57.868Z,98014.00
2019-03-18T11:59:01.132Z,98007.50
2019-03-18T12:00:03.784Z,98007.50
2019-03-18T12:01:06.832Z,98010.00
2019-03-18T12:02:10.613Z,98002.00
2019-03-18T12:03:13.321Z,98002.00
2019-03-18T12:04:25.365Z,98010.84
2019-03-18T12:05:30.494Z,98016.39
2019-03-18T12:06:33.186Z,98008.44
2019-03-18T12:07:36.328Z,98008.44
2019-03-18T12:08:39.585Z,98000.05
2019-03-18T12:09:42.422Z,98007.03
2019-03-18T12:10:45.210Z,97996.89
2019-03-18T12:11:48.303Z,97962.51
2019-03-18T12:12:52.428Z,97994.38
2019-03-18T12:13:56.559Z,97993.88
2019-03-18T12:15:00.873Z,98004.28
2019-03-18T12:16:03.721Z,98004.28
2019-03-18T12:17:08.087Z,98008.78
2019-03-18T12:18:10.932Z,98005.03
2019-03-18T12:19:13.645Z,98019.45
2019-03-18T12:20:24.862Z,98014.15
2019-03-18T12:21:26.005Z,98022.13
2019-03-18T12:22:35.656Z,98022.13
2019-03-18T12:23:41.534Z,98016.59
2019-03-18T12:24:45.310Z,98017.41
2019-03-18T12:25:48.470Z,98024.16
2019-03-18T12:26:52.197Z,98030.24
2019-03-18T12:27:57.096Z,98038.60
2019-03-18T12:28:59.775Z,98037.75
2019-03-18T12:30:05.317Z,98032.63
2019-03-18T12:31:08.088Z,98032.63
2019-03-18T12:32:12.717Z,98035.44
2019-03-18T12:33:20.120Z,98035.44
2019-03-18T12:34:22.842Z,98027.91
2019-03-18T12:35:25.526Z,98027.91
2019-03-18T12:36:28.290Z,98036.03
2019-03-18T12:37:36.119Z,98025.94
2019-03-18T12:38:40.819Z,98026.30
2019-03-18T12:39:45.411Z,98024.63
2019-03-18T12:40:48.347Z,98024.63
2019-03-18T12:41:53.611Z,98031.06
2019-03-18T12:43:00.131Z,98021.25
2019-03-18T12:44:05.655Z,98021.25
2019-03-18T12:45:11.581Z,98012.37
2019-03-18T12:46:15.479Z,98006.95
2019-03-18T12:47:18.251Z,98009.13
2019-03-18T12:48:21.286Z,98001.34
2019-03-18T12:49:26.264Z,98003.71
2019-03-18T12:50:49.357Z,97980.73
2019-03-18T12:51:34.365Z,97980.73